JM-0007 weather

Puerto Seco Airstrip
Discovery Bay, Saint Ann, Jamaica

Public forecast

Using degrees Celsius for public forecast. Weather courtesy of forecast.io.

METAR (pilot weather report)

Closest report is Sangster International Airport, 29.6 nm (54.9 km) W. Retrieved 2019/05/20 18:00 UTC (57 minutes ago):

MKJS 201800Z 06011KT 9999 FEW022 31/24 Q1013

TAF (pilot weather forecast)

Closest forecast is Sangster International Airport, 29.6 nm (54.9 km) W. Retrieved 2019/05/20 18:21 UTC (36 minutes ago):

TAF MKJS 201715Z 2018/2118 06010KT 9999 SCT022 TEMPO 2018/2024 TSRA BKN017 FEW020CB BECMG 2100/2102 15003KT FEW022 BECMG 2113/2115 05010KT